Terminal Aerodrome Forecast
Issued by NWS Brownsville, TX

Home | Current Version | Previous Version | Text Only | Print | Product List | Glossary On
Versions: 1 2 3 4 5 6 7 8 9 10 11 12 13 14 15 16 17
722
FTUS44 KBRO 232340
TAFHRL
TAF
KHRL 232340Z 2400/2424 16007KT P6SM SKC
     FM241200 17014G20KT P6SM SKC
     FM241600 18027G35KT P6SM FEW050=

USA.gov is the U.S. government's official web portal to all federal, state and local government web resources and services.